createdAt,value
2023-02-21T00:05:10.373Z,24.23
2023-02-21T00:10:34.314Z,23.93
2023-02-21T00:15:54.895Z,23.92
2023-02-21T00:21:15.726Z,24.05
2023-02-21T00:26:37.813Z,24.04
2023-02-21T00:31:58.320Z,23.85
2023-02-21T00:37:19.075Z,23.97
2023-02-21T00:42:40.809Z,23.76
2023-02-21T00:48:01.442Z,23.58
2023-02-21T00:53:22.104Z,23.65
2023-02-21T00:58:43.986Z,23.54
2023-02-21T01:04:04.541Z,23.62
2023-02-21T01:09:25.040Z,23.49
2023-02-21T01:14:46.859Z,23.65
2023-02-21T01:20:07.490Z,23.32
2023-02-21T01:25:28.123Z,23.42
2023-02-21T01:30:50.030Z,23.42
2023-02-21T01:36:12.982Z,23.19
2023-02-21T01:41:33.885Z,23.41
2023-02-21T01:46:56.134Z,23.28
2023-02-21T01:52:18.504Z,23.04
2023-02-21T01:57:39.470Z,23.20
2023-02-21T02:03:07.567Z,22.92
2023-02-21T02:08:28.279Z,23.20
2023-02-21T02:13:46.983Z,23.02
2023-02-21T02:19:01.319Z,22.83
2023-02-21T02:24:41.624Z,22.98
2023-02-21T02:29:58.579Z,22.84
2023-02-21T02:35:06.761Z,22.82
2023-02-21T02:40:16.572Z,22.95
2023-02-21T02:45:22.789Z,23.02
2023-02-21T02:50:27.980Z,22.66
2023-02-21T02:55:39.133Z,22.74
2023-02-21T03:00:45.830Z,22.63
2023-02-21T03:06:02.292Z,22.78
2023-02-21T03:11:10.591Z,22.82
2023-02-21T03:16:19.347Z,22.91
2023-02-21T03:21:26.271Z,22.70
2023-02-21T03:26:31.750Z,22.67
2023-02-21T03:31:37.806Z,22.54
2023-02-21T03:36:43.171Z,22.61
2023-02-21T03:41:46.009Z,22.44
2023-02-21T03:46:48.942Z,22.44
2023-02-21T03:51:53.142Z,22.36
2023-02-21T03:56:56.013Z,22.20
2023-02-21T04:01:58.933Z,22.51
2023-02-21T04:07:03.346Z,22.32
2023-02-21T04:12:07.009Z,22.31
2023-02-21T04:17:10.011Z,22.53
2023-02-21T04:22:14.234Z,22.37
2023-02-21T04:27:17.753Z,22.06
2023-02-21T04:32:20.816Z,22.40
2023-02-21T04:37:25.149Z,22.41
2023-02-21T04:42:28.013Z,22.39
2023-02-21T04:47:30.845Z,22.42
2023-02-21T04:52:35.277Z,22.15
2023-02-21T04:57:38.134Z,22.31
2023-02-21T05:02:43.810Z,22.17
2023-02-21T05:07:48.279Z,22.09
2023-02-21T05:12:51.154Z,21.93
2023-02-21T05:17:54.018Z,22.20
2023-02-21T05:23:04.800Z,21.98
2023-02-21T05:28:14.755Z,22.04
2023-02-21T05:33:18.241Z,22.08
2023-02-21T05:38:23.642Z,21.78
2023-02-21T05:43:29.015Z,21.85
2023-02-21T05:48:31.959Z,22.05
2023-02-21T05:53:36.124Z,21.99
2023-02-21T05:58:39.333Z,21.77
2023-02-21T06:03:42.224Z,21.74
2023-02-21T06:08:48.182Z,21.74
2023-02-21T06:13:52.194Z,21.84
2023-02-21T06:18:56.395Z,21.80
2023-02-21T06:24:00.637Z,21.72
2023-02-21T06:29:03.462Z,21.76
2023-02-21T06:34:06.946Z,21.66
2023-02-21T06:39:13.157Z,21.75
2023-02-21T06:44:16.640Z,21.77
2023-02-21T06:49:19.716Z,21.39
2023-02-21T06:54:25.097Z,21.67
2023-02-21T06:59:28.586Z,21.45
2023-02-21T07:04:31.503Z,21.59
2023-02-21T07:09:35.734Z,21.29
2023-02-21T07:14:38.631Z,21.52
2023-02-21T07:19:42.188Z,21.14
2023-02-21T07:24:46.630Z,21.30
2023-02-21T07:29:49.741Z,21.57
2023-02-21T07:34:52.842Z,21.30
2023-02-21T07:39:57.203Z,21.54
2023-02-21T07:45:00.277Z,21.21
2023-02-21T07:50:03.199Z,21.14
2023-02-21T07:55:07.963Z,21.23
2023-02-21T08:00:11.763Z,21.21
2023-02-21T08:05:16.873Z,24.76
2023-02-21T08:10:23.423Z,26.07
2023-02-21T08:15:26.269Z,27.06
2023-02-21T08:20:29.395Z,25.85
2023-02-21T08:25:33.585Z,26.28
2023-02-21T08:30:37.583Z,28.23
2023-02-21T08:35:40.482Z,25.01
2023-02-21T08:40:45.410Z,23.98
2023-02-21T08:45:48.263Z,23.57
2023-02-21T08:50:52.143Z,23.46
2023-02-21T08:55:56.273Z,23.00
2023-02-21T09:00:59.165Z,23.21
2023-02-21T09:06:03.684Z,23.14
2023-02-21T09:11:08.380Z,23.39
2023-02-21T09:16:11.471Z,24.81
2023-02-21T09:21:15.520Z,24.72
2023-02-21T09:26:19.997Z,26.45
2023-02-21T09:31:22.868Z,27.03
2023-02-21T09:36:25.711Z,26.98
2023-02-21T09:41:29.922Z,25.87
2023-02-21T09:46:35.845Z,24.67
2023-02-21T09:51:41.690Z,24.43
2023-02-21T09:56:46.306Z,24.54
2023-02-21T10:01:57.251Z,24.61
2023-02-21T10:07:01.798Z,24.97
2023-02-21T10:12:13.966Z,25.11
2023-02-21T10:17:20.426Z,24.83
2023-02-21T10:22:25.344Z,25.24
2023-02-21T10:27:32.206Z,25.16
2023-02-21T10:32:35.276Z,24.92
2023-02-21T10:37:41.233Z,25.14
2023-02-21T10:42:54.456Z,25.14
2023-02-21T10:48:02.756Z,25.50
2023-02-21T10:53:05.856Z,25.37
2023-02-21T10:58:12.096Z,25.48
2023-02-21T11:03:22.944Z,25.50
2023-02-21T11:08:37.067Z,26.53
2023-02-21T11:13:41.230Z,29.02
2023-02-21T11:18:44.466Z,30.53
2023-02-21T11:23:50.711Z,29.10
2023-02-21T11:28:54.996Z,30.24
2023-02-21T11:33:59.813Z,28.12
2023-02-21T11:39:06.764Z,28.87
2023-02-21T11:44:33.816Z,27.98
2023-02-21T11:49:42.893Z,27.66
2023-02-21T11:54:46.070Z,27.92
2023-02-21T11:59:58.762Z,27.29
2023-02-21T12:05:12.235Z,26.94
2023-02-21T12:10:40.187Z,27.40
2023-02-21T12:15:57.414Z,27.28
2023-02-21T12:21:15.483Z,26.83
2023-02-21T12:26:33.063Z,27.83
2023-02-21T12:31:46.310Z,27.67
2023-02-21T12:36:59.055Z,26.10
2023-02-21T12:42:11.371Z,26.03
2023-02-21T12:47:21.286Z,28.26
2023-02-21T12:52:28.106Z,30.38
2023-02-21T12:57:37.187Z,25.49
2023-02-21T13:02:46.455Z,27.21
2023-02-21T13:07:53.581Z,26.51
2023-02-21T13:13:00.205Z,27.22
2023-02-21T13:18:08.611Z,26.83
2023-02-21T13:23:43.712Z,25.81
2023-02-21T13:28:46.752Z,25.92
2023-02-21T13:33:53.594Z,26.03
2023-02-21T13:39:03.454Z,25.24
2023-02-21T13:44:10.601Z,25.66
2023-02-21T13:49:42.757Z,26.48
2023-02-21T13:55:27.227Z,26.43
2023-02-21T14:00:52.009Z,26.75
2023-02-21T14:06:23.855Z,25.90
2023-02-21T14:11:28.789Z,24.98
2023-02-21T14:16:34.932Z,25.22
2023-02-21T14:21:41.989Z,25.22
2023-02-21T14:26:46.867Z,27.20
2023-02-21T14:31:55.573Z,25.58
2023-02-21T14:42:35.114Z,25.50
2023-02-21T14:47:50.382Z,25.03
2023-02-21T14:53:09.179Z,25.34
2023-02-21T14:58:53.013Z,57.24
2023-02-21T15:04:03.056Z,25.95
2023-02-21T15:09:14.420Z,24.68
2023-02-21T15:14:23.711Z,25.61
2023-02-21T15:19:29.868Z,26.18
2023-02-21T15:24:34.024Z,25.16
2023-02-21T15:29:38.330Z,26.16
2023-02-21T15:34:42.848Z,24.66
2023-02-21T15:39:54.457Z,24.39
2023-02-21T15:44:59.986Z,24.20
2023-02-21T15:50:07.046Z,24.48
2023-02-21T15:55:31.817Z,24.84
2023-02-21T16:00:36.166Z,25.33
2023-02-21T16:05:39.013Z,23.88
2023-02-21T16:10:43.926Z,24.19
2023-02-21T16:15:47.456Z,26.22
2023-02-21T16:21:01.043Z,26.12
2023-02-21T16:26:27.973Z,26.08
2023-02-21T16:31:33.001Z,25.78
2023-02-21T16:36:39.266Z,26.99
2023-02-21T16:41:43.405Z,26.46
2023-02-21T16:46:47.006Z,26.67
2023-02-21T16:51:50.787Z,29.23
2023-02-21T16:56:55.228Z,31.28
2023-02-21T17:01:58.329Z,32.80
2023-02-21T17:07:03.768Z,34.64
2023-02-21T17:12:08.380Z,36.29
2023-02-21T17:17:11.298Z,38.53
2023-02-21T17:22:14.180Z,39.24
2023-02-21T17:27:18.638Z,40.02
2023-02-21T17:32:21.529Z,40.40
2023-02-21T17:37:24.546Z,41.46
2023-02-21T17:42:28.792Z,41.83
2023-02-21T17:47:31.629Z,42.81
2023-02-21T17:52:34.648Z,44.04
2023-02-21T17:57:40.687Z,43.94
2023-02-21T18:02:43.550Z,44.51
2023-02-21T18:07:48.317Z,45.43
2023-02-21T18:12:53.097Z,46.47
2023-02-21T18:17:56.086Z,46.52
2023-02-21T18:22:59.673Z,46.99
2023-02-21T18:28:04.275Z,46.56
2023-02-21T18:33:07.081Z,47.22
2023-02-21T18:38:09.881Z,47.96
2023-02-21T18:43:19.558Z,47.99
2023-02-21T18:48:23.268Z,48.97
2023-02-21T18:53:26.109Z,49.46
2023-02-21T18:58:30.339Z,49.66
2023-02-21T19:03:33.314Z,49.89
2023-02-21T19:08:36.180Z,49.92
2023-02-21T19:13:40.554Z,49.82
2023-02-21T19:18:43.351Z,50.18
2023-02-21T19:23:46.554Z,50.62
2023-02-21T19:28:50.733Z,51.13
2023-02-21T19:33:53.549Z,51.21
2023-02-21T19:38:56.644Z,51.44
2023-02-21T19:44:00.846Z,51.21
2023-02-21T19:49:06.853Z,51.50
2023-02-21T19:54:09.642Z,51.77
2023-02-21T19:59:14.298Z,52.08
2023-02-21T20:04:18.757Z,51.67
2023-02-21T20:09:21.792Z,51.94
2023-02-21T20:14:25.959Z,52.11
2023-02-21T20:19:30.081Z,52.33
2023-02-21T20:24:32.868Z,51.82
2023-02-21T20:29:37.017Z,52.40
2023-02-21T20:34:40.402Z,52.73
2023-02-21T20:39:43.240Z,52.99
2023-02-21T20:44:48.220Z,52.70
2023-02-21T20:49:51.165Z,52.96
2023-02-21T20:54:53.974Z,52.76
2023-02-21T20:59:59.067Z,52.52
2023-02-21T21:05:01.983Z,52.92
2023-02-21T21:10:07.095Z,53.11
2023-02-21T21:15:11.574Z,53.60
2023-02-21T21:20:17.719Z,53.30
2023-02-21T21:25:22.601Z,53.64
2023-02-21T21:30:27.305Z,53.36
2023-02-21T21:35:30.808Z,53.42
2023-02-21T21:40:33.758Z,53.72
2023-02-21T21:45:44.347Z,53.23
2023-02-21T21:50:47.349Z,53.52
2023-02-21T21:55:50.141Z,53.05
2023-02-21T22:00:54.562Z,53.51
2023-02-21T22:06:00.497Z,53.64
2023-02-21T22:11:03.597Z,53.66
2023-02-21T22:16:10.048Z,53.62
2023-02-21T22:21:14.089Z,53.51
2023-02-21T22:26:18.459Z,53.30
2023-02-21T22:31:23.794Z,53.14
2023-02-21T22:36:27.274Z,53.63
2023-02-21T22:41:32.569Z,53.73
2023-02-21T22:46:42.641Z,53.64
2023-02-21T22:51:45.512Z,53.54
2023-02-21T22:56:51.660Z,53.49
2023-02-21T23:01:58.346Z,53.70
2023-02-21T23:07:01.318Z,53.27
2023-02-21T23:12:05.819Z,53.80
2023-02-21T23:17:09.989Z,53.07
2023-02-21T23:22:12.907Z,54.01
2023-02-21T23:27:15.755Z,53.95
2023-02-21T23:32:19.961Z,53.46
2023-02-21T23:37:22.905Z,53.44
2023-02-21T23:42:25.735Z,53.73
2023-02-21T23:47:32.205Z,53.64
2023-02-21T23:52:35.034Z,53.67
2023-02-21T23:57:40.126Z,54.18
